createdAt,value
2023-01-26T00:01:44.776Z,100458.69
2023-01-26T00:04:13.304Z,100458.69
2023-01-26T00:06:40.858Z,100444.34
2023-01-26T00:09:14.956Z,100446.06
2023-01-26T00:11:42.599Z,100445.44
2023-01-26T00:14:10.267Z,100446.16
2023-01-26T00:16:38.046Z,100452.41
2023-01-26T00:19:05.990Z,100444.72
2023-01-26T00:21:33.688Z,100435.53
2023-01-26T00:24:01.337Z,100429.56
2023-01-26T00:26:29.020Z,100426.41
2023-01-26T00:28:56.580Z,100418.09
2023-01-26T00:31:29.258Z,100413.25
2023-01-26T00:33:57.818Z,100398.69
2023-01-26T00:36:25.905Z,100406.63
2023-01-26T00:38:53.469Z,100399.16
2023-01-26T00:41:39.643Z,100391.25
2023-01-26T00:44:09.818Z,100386.59
2023-01-26T00:46:41.611Z,100393.84
2023-01-26T00:49:09.286Z,100391.72
2023-01-26T00:51:36.774Z,100395.72
2023-01-26T00:54:05.095Z,100396.34
2023-01-26T00:56:32.587Z,100397.19
2023-01-26T00:59:00.123Z,100402.06
2023-01-26T01:01:27.585Z,100401.63
2023-01-26T01:03:55.121Z,100391.88
2023-01-26T01:06:22.648Z,100391.47
2023-01-26T01:08:51.696Z,100392.63
2023-01-26T01:11:19.291Z,100387.84
2023-01-26T01:13:46.919Z,100389.13
2023-01-26T01:16:16.787Z,100382.88
2023-01-26T01:18:45.197Z,100375.09
2023-01-26T01:21:16.464Z,100379.28
2023-01-26T01:23:44.615Z,100382.34
2023-01-26T01:26:13.015Z,100377.16
2023-01-26T01:28:42.128Z,100370.97
2023-01-26T01:31:13.711Z,100373.09
2023-01-26T01:33:42.204Z,100384.22
2023-01-26T01:36:14.632Z,100378.66
2023-01-26T01:38:43.514Z,100368.03
2023-01-26T01:41:12.448Z,100367.75
2023-01-26T01:43:40.223Z,100367.59
2023-01-26T01:46:36.474Z,100373.41
2023-01-26T01:49:17.185Z,100359.81
2023-01-26T01:52:00.817Z,100360.59
2023-01-26T01:55:06.169Z,100361.16
2023-01-26T01:57:55.910Z,100358.00
2023-01-26T02:00:24.725Z,100357.53
2023-01-26T02:03:11.948Z,100352.78
2023-01-26T02:06:13.315Z,100349.66
2023-01-26T02:08:49.631Z,100339.22
2023-01-26T02:11:34.046Z,100326.91
2023-01-26T02:14:07.520Z,100322.75
2023-01-26T02:16:35.560Z,100325.81
2023-01-26T02:19:06.707Z,100323.06
2023-01-26T02:21:34.541Z,100325.19
2023-01-26T02:24:23.000Z,100325.81
2023-01-26T02:26:54.865Z,100321.81
2023-01-26T02:29:23.522Z,100322.09
2023-01-26T02:31:53.634Z,100321.97
2023-01-26T02:34:21.851Z,100307.97
2023-01-26T02:37:01.094Z,100310.03
2023-01-26T02:40:00.054Z,100313.06
2023-01-26T02:42:39.524Z,100317.56
2023-01-26T02:45:08.396Z,100315.03
2023-01-26T02:47:35.956Z,100311.34
2023-01-26T02:50:06.707Z,100312.06
2023-01-26T02:52:34.333Z,100299.72
2023-01-26T02:55:25.011Z,100286.25
2023-01-26T02:57:59.812Z,100279.59
2023-01-26T03:00:37.369Z,100282.91
2023-01-26T03:03:45.657Z,100287.91
2023-01-26T03:06:15.333Z,100281.13
2023-01-26T03:08:43.287Z,100282.13
2023-01-26T03:11:10.888Z,100284.00
2023-01-26T03:13:38.402Z,100286.59
2023-01-26T03:16:12.019Z,100284.41
2023-01-26T03:18:58.439Z,100280.72
2023-01-26T03:21:44.917Z,100277.91
2023-01-26T03:24:33.470Z,100273.25
2023-01-26T03:27:23.011Z,100275.84
2023-01-26T03:29:51.627Z,100271.69
2023-01-26T03:32:19.223Z,100268.00
2023-01-26T03:34:47.859Z,100260.78
2023-01-26T03:37:15.351Z,100265.72
2023-01-26T03:40:11.095Z,100266.97
2023-01-26T03:42:57.984Z,100252.59
2023-01-26T03:45:44.236Z,100252.09
2023-01-26T03:48:32.101Z,100240.72
2023-01-26T03:51:19.318Z,100222.31
2023-01-26T03:54:05.613Z,100222.09
2023-01-26T03:56:33.545Z,100220.88
2023-01-26T03:59:08.560Z,100222.88
2023-01-26T04:01:40.168Z,100225.88
2023-01-26T04:04:27.672Z,100216.84
2023-01-26T04:07:14.532Z,100217.06
2023-01-26T04:09:46.744Z,100213.66
2023-01-26T04:12:14.312Z,100198.31
2023-01-26T04:15:29.370Z,100195.44
2023-01-26T04:18:15.955Z,100201.56
2023-01-26T04:21:02.114Z,100201.53
2023-01-26T04:23:29.772Z,100197.19
2023-01-26T04:25:57.345Z,100196.09
2023-01-26T04:28:24.847Z,100198.75
2023-01-26T04:30:52.582Z,100192.78
2023-01-26T04:33:20.488Z,100187.94
2023-01-26T04:35:48.088Z,100189.22
2023-01-26T04:38:15.662Z,100190.25
2023-01-26T04:40:43.640Z,100193.63
2023-01-26T04:43:11.551Z,100200.03
2023-01-26T04:45:39.194Z,100207.31
2023-01-26T04:48:06.939Z,100197.91
2023-01-26T04:50:34.510Z,100194.41
2023-01-26T04:53:02.287Z,100181.41
2023-01-26T04:55:30.659Z,100183.28
2023-01-26T04:57:59.233Z,100184.28
2023-01-26T05:00:26.808Z,100186.63
2023-01-26T05:02:57.788Z,100183.81
2023-01-26T05:05:25.338Z,100187.22
2023-01-26T05:07:53.369Z,100185.69
2023-01-26T05:10:22.093Z,100192.19
2023-01-26T05:12:58.453Z,100189.81
2023-01-26T05:15:44.967Z,100186.75
2023-01-26T05:18:25.908Z,100183.88
2023-01-26T05:20:57.103Z,100173.53
2023-01-26T05:23:27.156Z,100168.63
2023-01-26T05:26:04.859Z,100176.13
2023-01-26T05:28:41.518Z,100170.41
2023-01-26T05:31:09.141Z,100173.19
2023-01-26T05:33:36.914Z,100171.69
2023-01-26T05:36:07.937Z,100175.06
2023-01-26T05:38:36.192Z,100167.66
2023-01-26T05:41:04.164Z,100160.84
2023-01-26T05:43:40.207Z,100159.28
2023-01-26T05:46:10.368Z,100160.84
2023-01-26T05:48:40.801Z,100162.28
2023-01-26T05:51:08.288Z,100161.63
2023-01-26T05:53:37.251Z,100154.13
2023-01-26T05:56:05.234Z,100155.25
2023-01-26T05:58:38.102Z,100154.31
2023-01-26T06:01:06.150Z,100158.66
2023-01-26T06:03:42.738Z,100164.69
2023-01-26T06:06:10.314Z,100168.19
2023-01-26T06:08:45.654Z,100155.09
2023-01-26T06:11:39.257Z,100158.91
2023-01-26T06:14:11.427Z,100156.31
2023-01-26T06:16:39.357Z,100150.47
2023-01-26T06:19:11.117Z,100153.84
2023-01-26T06:21:39.775Z,100144.28
2023-01-26T06:24:08.108Z,100147.41
2023-01-26T06:26:35.644Z,100151.25
2023-01-26T06:29:03.403Z,100150.47
2023-01-26T06:31:37.165Z,100147.41
2023-01-26T06:34:05.983Z,100146.19
2023-01-26T06:36:38.415Z,100145.91
2023-01-26T06:39:08.807Z,100146.44
2023-01-26T06:41:36.355Z,100148.66
2023-01-26T06:44:04.237Z,100146.78
2023-01-26T06:46:31.941Z,100157.00
2023-01-26T06:49:01.677Z,100148.38
2023-01-26T06:51:42.213Z,100144.25
2023-01-26T06:54:12.892Z,100153.97
2023-01-26T06:56:59.294Z,100142.59
2023-01-26T06:59:47.024Z,100133.97
2023-01-26T07:02:22.651Z,100138.78
2023-01-26T07:04:51.106Z,100134.94
2023-01-26T07:07:18.707Z,100127.72
2023-01-26T07:09:46.535Z,100125.81
2023-01-26T07:12:14.054Z,100122.41
2023-01-26T07:14:41.705Z,100117.72
2023-01-26T07:17:09.256Z,100111.78
2023-01-26T07:19:37.393Z,100112.63
2023-01-26T07:22:05.548Z,100112.09
2023-01-26T07:24:33.076Z,100101.50
2023-01-26T07:27:00.709Z,100097.31
2023-01-26T07:29:28.722Z,100101.06
2023-01-26T07:31:56.871Z,100106.78
2023-01-26T07:34:24.534Z,100096.88
2023-01-26T07:36:53.240Z,100096.31
2023-01-26T07:39:20.777Z,100086.69
2023-01-26T07:41:49.391Z,100080.78
2023-01-26T07:44:36.622Z,100068.31
2023-01-26T07:47:04.104Z,100079.56
2023-01-26T07:49:32.535Z,100079.72
2023-01-26T07:52:00.096Z,100071.63
2023-01-26T07:54:27.635Z,100075.16
2023-01-26T07:56:58.519Z,100075.47
2023-01-26T07:59:26.155Z,100079.53
2023-01-26T08:01:53.933Z,100072.59
2023-01-26T08:04:22.090Z,100076.47
2023-01-26T08:06:52.728Z,100077.13
2023-01-26T08:09:20.910Z,100078.38
2023-01-26T08:11:48.531Z,100077.41
2023-01-26T08:14:16.276Z,100076.56
2023-01-26T08:16:45.493Z,100080.16
2023-01-26T08:19:13.092Z,100076.81
2023-01-26T08:21:40.629Z,100076.69
2023-01-26T08:24:08.591Z,100082.44
2023-01-26T08:26:38.489Z,100084.81
2023-01-26T08:29:06.349Z,100079.41
2023-01-26T08:31:34.141Z,100078.59
2023-01-26T08:34:01.773Z,100076.63
2023-01-26T08:36:29.263Z,100075.84
2023-01-26T08:38:57.472Z,100075.47
2023-01-26T08:41:25.164Z,100076.28
2023-01-26T08:44:12.640Z,100074.22
2023-01-26T08:46:40.166Z,100063.50
2023-01-26T08:49:07.704Z,100069.66
2023-01-26T08:51:35.243Z,100063.63
2023-01-26T08:54:05.103Z,100058.31
2023-01-26T08:56:32.592Z,100052.91
2023-01-26T08:59:00.232Z,100048.16
2023-01-26T09:01:28.019Z,100046.03
2023-01-26T09:03:56.374Z,100043.84
2023-01-26T09:06:27.704Z,100037.16
2023-01-26T09:08:55.585Z,100034.09
2023-01-26T09:11:23.137Z,100037.03
2023-01-26T09:13:56.799Z,100028.59
2023-01-26T09:16:25.476Z,100029.41
2023-01-26T09:18:54.762Z,100028.78
2023-01-26T09:21:25.142Z,100026.28
2023-01-26T09:23:53.155Z,100028.25
2023-01-26T09:26:20.848Z,100023.94
2023-01-26T09:28:53.565Z,100023.00
2023-01-26T09:31:22.512Z,100020.59
2023-01-26T09:33:52.295Z,100007.19
2023-01-26T09:36:20.508Z,99995.88
2023-01-26T09:38:48.343Z,99999.06
2023-01-26T09:41:36.728Z,99996.38
2023-01-26T09:44:17.236Z,99980.50
2023-01-26T09:47:22.703Z,99981.50
2023-01-26T09:50:05.234Z,99980.19
2023-01-26T09:53:02.933Z,99976.69
2023-01-26T09:55:31.823Z,99966.31
2023-01-26T09:58:28.744Z,99962.56
2023-01-26T10:01:03.072Z,99955.28
2023-01-26T10:04:09.692Z,99951.72
2023-01-26T10:06:38.891Z,99939.53
2023-01-26T10:09:25.686Z,99922.94
2023-01-26T10:12:08.474Z,99926.81
2023-01-26T10:14:47.199Z,99924.06
2023-01-26T10:17:33.887Z,99920.16
2023-01-26T10:20:29.043Z,99908.78
2023-01-26T10:23:38.411Z,99899.75
2023-01-26T10:26:19.301Z,99893.94
2023-01-26T10:28:52.938Z,99895.25
2023-01-26T10:31:30.189Z,99897.66
2023-01-26T10:34:25.321Z,99891.16
2023-01-26T10:37:15.330Z,99893.84
2023-01-26T10:40:07.618Z,99886.41
2023-01-26T10:42:37.892Z,99874.91
2023-01-26T10:45:31.572Z,99862.41
2023-01-26T10:48:13.740Z,99862.00
2023-01-26T10:50:47.880Z,99850.38
2023-01-26T10:53:27.593Z,99836.31
2023-01-26T10:56:14.218Z,99826.91
2023-01-26T10:58:45.960Z,99830.44
2023-01-26T11:01:19.084Z,99828.41
2023-01-26T11:04:13.619Z,99824.53
2023-01-26T11:06:46.026Z,99821.53
2023-01-26T11:09:32.672Z,99811.31
2023-01-26T11:12:06.502Z,99813.78
2023-01-26T11:14:37.977Z,99823.16
2023-01-26T11:17:23.368Z,99822.78
2023-01-26T11:20:24.256Z,99821.13
2023-01-26T11:22:57.990Z,99812.66
2023-01-26T11:25:42.884Z,99800.34
2023-01-26T11:28:59.879Z,99804.06
2023-01-26T11:32:05.020Z,99799.59
2023-01-26T11:35:04.926Z,99797.16
2023-01-26T11:37:54.007Z,99785.25
2023-01-26T11:40:38.391Z,99769.28
2023-01-26T11:43:39.902Z,99768.06
2023-01-26T11:46:41.487Z,99760.38
2023-01-26T11:49:41.719Z,99749.38
2023-01-26T11:52:32.831Z,99735.84
2023-01-26T11:55:28.905Z,99730.34
2023-01-26T11:58:27.072Z,99735.16
2023-01-26T12:01:09.279Z,99721.16
2023-01-26T12:03:47.006Z,99715.72
2023-01-26T12:06:40.605Z,99716.97
2023-01-26T12:10:00.138Z,99704.97
2023-01-26T12:12:51.307Z,99714.84
2023-01-26T12:15:29.935Z,99697.03
2023-01-26T12:18:10.731Z,99705.53
2023-01-26T12:20:45.873Z,99708.56
2023-01-26T12:23:27.826Z,99706.63
2023-01-26T12:26:13.394Z,99698.13
2023-01-26T12:28:50.647Z,99698.41
2023-01-26T12:31:53.744Z,99694.31
2023-01-26T12:34:29.043Z,99701.28
2023-01-26T12:37:17.911Z,99698.91
2023-01-26T12:40:09.535Z,99697.91
2023-01-26T12:42:59.570Z,99697.38
2023-01-26T12:45:55.456Z,99689.81
2023-01-26T12:48:24.424Z,99696.59
2023-01-26T12:51:02.744Z,99690.13
2023-01-26T12:54:05.180Z,99685.50
2023-01-26T12:56:44.704Z,99676.75
2023-01-26T12:59:39.410Z,99684.97
2023-01-26T13:02:31.543Z,99680.56
2023-01-26T13:05:01.538Z,99676.09
2023-01-26T13:07:40.773Z,99674.03
2023-01-26T13:10:29.339Z,99670.94
2023-01-26T13:13:38.514Z,99664.44
2023-01-26T13:16:22.031Z,99666.28
2023-01-26T13:18:58.614Z,99662.13
2023-01-26T13:21:46.120Z,99655.94
2023-01-26T13:24:19.406Z,99654.91
2023-01-26T13:26:49.562Z,99659.78
2023-01-26T13:29:27.343Z,99654.25
2023-01-26T13:32:04.057Z,99639.53
2023-01-26T13:34:49.567Z,99633.13
2023-01-26T13:37:43.023Z,99631.88
2023-01-26T13:40:32.556Z,99630.88
2023-01-26T13:43:29.021Z,99620.47
2023-01-26T13:46:01.284Z,99614.22
2023-01-26T13:48:41.841Z,99618.16
2023-01-26T13:51:20.898Z,99606.78
2023-01-26T13:54:04.797Z,99605.97
2023-01-26T13:56:42.186Z,99598.41
2023-01-26T13:59:21.295Z,99602.31
2023-01-26T14:01:53.932Z,99594.75
2023-01-26T14:04:28.647Z,99577.94
2023-01-26T14:07:06.512Z,99570.44
2023-01-26T14:09:52.719Z,99565.72
2023-01-26T14:12:28.270Z,99563.03
2023-01-26T14:15:04.224Z,99552.69
2023-01-26T14:17:36.801Z,99548.28
2023-01-26T14:20:34.874Z,99539.75
2023-01-26T14:23:15.356Z,99534.31
2023-01-26T14:26:19.328Z,99533.56
2023-01-26T14:29:11.282Z,99520.31
2023-01-26T14:31:42.581Z,99520.84
2023-01-26T14:34:11.821Z,99516.97
2023-01-26T14:36:42.364Z,99517.25
2023-01-26T14:39:23.052Z,99512.06
2023-01-26T14:41:51.712Z,99514.88
2023-01-26T14:44:19.187Z,99507.09
2023-01-26T14:47:04.639Z,99495.66
2023-01-26T14:50:05.159Z,99494.66
2023-01-26T14:52:42.935Z,99485.09
2023-01-26T14:55:40.887Z,99480.63
2023-01-26T14:58:35.708Z,99469.94
2023-01-26T15:01:07.578Z,99468.22
2023-01-26T15:03:40.784Z,99472.34
2023-01-26T15:06:25.259Z,99467.13
2023-01-26T15:09:02.634Z,99471.31
2023-01-26T15:11:56.922Z,99461.47
2023-01-26T15:14:46.230Z,99455.22
2023-01-26T15:17:40.097Z,99444.06
2023-01-26T15:20:19.587Z,99435.81
2023-01-26T15:22:52.829Z,99438.19
2023-01-26T15:25:26.273Z,99432.75
2023-01-26T15:28:01.895Z,99436.59
2023-01-26T15:30:35.928Z,99424.88
2023-01-26T15:33:04.403Z,99411.94
2023-01-26T15:35:34.812Z,99417.91
2023-01-26T15:38:06.532Z,99411.44
2023-01-26T15:40:34.116Z,99417.41
2023-01-26T15:43:18.203Z,99401.38
2023-01-26T15:45:56.126Z,99405.53
2023-01-26T15:48:25.429Z,99404.44
2023-01-26T15:50:53.265Z,99403.16
2023-01-26T15:53:22.860Z,99393.63
2023-01-26T15:55:56.779Z,99397.41
2023-01-26T15:58:25.633Z,99396.13
2023-01-26T16:00:53.913Z,99391.75
2023-01-26T16:03:24.720Z,99405.00
2023-01-26T16:05:52.461Z,99402.94
2023-01-26T16:08:20.990Z,99401.66
2023-01-26T16:10:49.911Z,99394.59
2023-01-26T16:13:19.823Z,99386.09
2023-01-26T16:15:54.629Z,99382.25
2023-01-26T16:18:22.470Z,99388.94
2023-01-26T16:20:50.754Z,99393.03
2023-01-26T16:23:25.048Z,99397.19
2023-01-26T16:25:53.348Z,99401.41
2023-01-26T16:28:21.036Z,99400.13
2023-01-26T16:30:51.414Z,99398.56
2023-01-26T16:33:21.799Z,99396.47
2023-01-26T16:35:49.500Z,99396.72
2023-01-26T16:38:17.139Z,99394.63
2023-01-26T16:40:48.045Z,99397.19
2023-01-26T16:43:42.964Z,99388.06
2023-01-26T16:46:13.397Z,99383.75
2023-01-26T16:48:41.903Z,99371.72
2023-01-26T16:51:27.123Z,99370.94
2023-01-26T16:53:55.525Z,99361.97
2023-01-26T16:56:46.240Z,99361.16
2023-01-26T16:59:13.677Z,99358.31
2023-01-26T17:01:42.804Z,99358.88
2023-01-26T17:04:11.552Z,99357.09
2023-01-26T17:06:40.500Z,99350.09
2023-01-26T17:09:08.202Z,99344.13
2023-01-26T17:11:35.727Z,99342.31
2023-01-26T17:14:03.765Z,99342.88
2023-01-26T17:16:34.425Z,99344.13
2023-01-26T17:19:05.258Z,99339.72
2023-01-26T17:21:35.089Z,99335.28
2023-01-26T17:24:02.871Z,99322.09
2023-01-26T17:26:30.485Z,99328.56
2023-01-26T17:28:58.750Z,99319.00
2023-01-26T17:31:30.632Z,99312.75
2023-01-26T17:33:58.999Z,99317.94
2023-01-26T17:36:26.610Z,99311.75
2023-01-26T17:38:57.297Z,99300.34
2023-01-26T17:41:28.704Z,99311.75
2023-01-26T17:43:57.329Z,99310.91
2023-01-26T17:46:27.168Z,99306.03
2023-01-26T17:48:55.734Z,99308.94
2023-01-26T17:51:27.896Z,99316.69
2023-01-26T17:53:57.360Z,99313.53
2023-01-26T17:56:32.144Z,99311.50
2023-01-26T17:59:14.736Z,99306.59
2023-01-26T18:01:59.702Z,99295.75
2023-01-26T18:47:02.956Z,99215.22
2023-01-26T19:00:47.909Z,99206.66
2023-01-26T19:17:57.388Z,99202.03
2023-01-26T19:20:45.009Z,99190.09
2023-01-26T19:28:44.799Z,99185.00
2023-01-26T19:31:24.406Z,99194.31
2023-01-26T19:34:25.349Z,99185.78
2023-01-26T19:37:10.068Z,99174.09
2023-01-26T19:51:28.019Z,99149.78
2023-01-26T19:53:59.486Z,99144.38
2023-01-26T19:56:41.753Z,99143.88
2023-01-26T19:59:16.216Z,99136.63
2023-01-26T20:01:50.612Z,99127.56
2023-01-26T20:04:40.088Z,99129.38
2023-01-26T20:07:32.367Z,99128.06
2023-01-26T20:10:07.882Z,99126.81
2023-01-26T20:12:41.977Z,99135.06
2023-01-26T20:15:16.900Z,99122.91
2023-01-26T20:17:48.718Z,99120.84
2023-01-26T20:20:19.449Z,99112.34
2023-01-26T20:22:53.222Z,99116.19
2023-01-26T20:25:28.750Z,99118.25
2023-01-26T20:28:00.827Z,99110.25
2023-01-26T20:30:31.954Z,99107.41
2023-01-26T20:33:05.675Z,99105.84
2023-01-26T20:35:38.175Z,99106.63
2023-01-26T20:38:08.361Z,99101.72
2023-01-26T20:40:42.478Z,99099.94
2023-01-26T20:43:13.052Z,99085.97
2023-01-26T20:45:43.395Z,99082.06
2023-01-26T20:48:14.012Z,99071.19
2023-01-26T20:51:06.956Z,99074.06
2023-01-26T20:53:48.173Z,99065.78
2023-01-26T20:56:32.768Z,99065.25
2023-01-26T20:59:08.765Z,99060.06
2023-01-26T21:02:02.000Z,99060.84
2023-01-26T21:04:34.200Z,99047.94
2023-01-26T21:07:06.298Z,99044.84
2023-01-26T21:09:37.901Z,99047.94
2023-01-26T21:12:08.968Z,99043.03
2023-01-26T21:14:40.924Z,99040.94
2023-01-26T21:17:10.834Z,99039.09
2023-01-26T21:19:42.038Z,99030.34
2023-01-26T21:22:15.736Z,99014.81
2023-01-26T21:24:46.062Z,99015.09
2023-01-26T21:27:15.940Z,99016.09
2023-01-26T21:29:45.646Z,99020.78
2023-01-26T21:32:18.692Z,99027.28
2023-01-26T21:34:49.251Z,99025.22
2023-01-26T21:37:41.884Z,99019.47
2023-01-26T21:40:13.445Z,99010.72
2023-01-26T21:42:42.174Z,98998.28
2023-01-26T21:45:33.070Z,98996.72
2023-01-26T21:48:20.438Z,98982.03
2023-01-26T21:51:08.590Z,98981.00
2023-01-26T21:53:39.789Z,98982.78
2023-01-26T21:56:10.929Z,98973.50
2023-01-26T21:59:23.699Z,98973.50
2023-01-26T22:01:58.018Z,98969.84
2023-01-26T22:04:30.359Z,98966.69
2023-01-26T22:07:00.730Z,98976.00
2023-01-26T22:09:36.961Z,98964.28
2023-01-26T22:12:05.912Z,98957.88
2023-01-26T22:14:33.853Z,98949.56
2023-01-26T22:17:06.141Z,98939.59
2023-01-26T22:19:37.682Z,98922.19
2023-01-26T22:22:06.191Z,98919.97
2023-01-26T22:24:34.155Z,98926.16
2023-01-26T22:27:02.112Z,98934.06
2023-01-26T22:29:30.160Z,98916.03
2023-01-26T22:31:57.724Z,98947.91
2023-01-26T22:34:25.276Z,98961.13
2023-01-26T22:36:53.528Z,98945.97
2023-01-26T22:39:21.281Z,98943.69
2023-01-26T22:41:48.910Z,98956.41
2023-01-26T22:44:16.555Z,98966.81
2023-01-26T22:46:44.034Z,98954.41
2023-01-26T22:49:11.785Z,98950.81
2023-01-26T22:51:39.323Z,98943.06
2023-01-26T22:54:06.855Z,98943.56
2023-01-26T22:56:34.467Z,98937.13
2023-01-26T22:59:02.340Z,98931.19
2023-01-26T23:01:33.878Z,98918.28
2023-01-26T23:04:02.451Z,98900.44
2023-01-26T23:06:30.623Z,98889.09
2023-01-26T23:09:01.041Z,98881.28
2023-01-26T23:11:30.636Z,98898.34
2023-01-26T23:14:00.206Z,98904.72
2023-01-26T23:16:28.668Z,98892.91
2023-01-26T23:18:59.814Z,98872.22
2023-01-26T23:21:30.039Z,98881.84
2023-01-26T23:23:58.449Z,98877.41
2023-01-26T23:26:26.304Z,98876.16
2023-01-26T23:28:54.302Z,98884.63
2023-01-26T23:31:21.991Z,98897.03
2023-01-26T23:33:50.598Z,98882.25
2023-01-26T23:36:18.184Z,98864.97
2023-01-26T23:38:45.996Z,98874.22
2023-01-26T23:41:14.631Z,98874.72
2023-01-26T23:43:42.400Z,98878.53
2023-01-26T23:46:11.547Z,98883.84
2023-01-26T23:48:39.683Z,98876.13
2023-01-26T23:51:10.797Z,98873.66
2023-01-26T23:53:38.962Z,98873.56
2023-01-26T23:56:15.149Z,98867.34
2023-01-26T23:58:43.085Z,98865.88
